createdAt,value
2016-07-30T00:00:04.816Z,1008.15
2016-07-30T00:00:14.810Z,1008.18
2016-07-30T00:00:24.808Z,1008.21
2016-07-30T00:00:34.801Z,1008.13
2016-07-30T00:00:44.799Z,1008.14
2016-07-30T00:00:54.803Z,1008.13
2016-07-30T00:01:04.788Z,1008.17
2016-07-30T00:01:14.794Z,1008.14
2016-07-30T00:01:24.779Z,1008.2
2016-07-30T00:01:34.773Z,1008.19
2016-07-30T00:01:44.768Z,1008.18
2016-07-30T00:01:54.763Z,1008.2
2016-07-30T00:02:04.759Z,1008.19
2016-07-30T00:02:14.756Z,1008.21
2016-07-30T00:02:24.749Z,1008.19
2016-07-30T00:02:34.749Z,1008.19
2016-07-30T00:02:44.742Z,1008.22
2016-07-30T00:02:54.737Z,1008.19
2016-07-30T00:03:04.733Z,1008.2
2016-07-30T00:03:14.726Z,1008.19
2016-07-30T00:03:24.722Z,1008.21
2016-07-30T00:03:34.718Z,1008.21
2016-07-30T00:03:44.713Z,1008.17
2016-07-30T00:03:54.709Z,1008.18
2016-07-30T00:04:04.704Z,1008.16
2016-07-30T00:04:14.702Z,1008.19
2016-07-30T00:04:24.697Z,1008.21
2016-07-30T00:04:34.689Z,1008.19
2016-07-30T00:04:44.685Z,1008.19
2016-07-30T00:04:54.683Z,1008.2
2016-07-30T00:05:04.679Z,1008.18
2016-07-30T00:05:15.409Z,1008.13
2016-07-30T00:05:24.668Z,1008.15
2016-07-30T00:05:34.664Z,1008.19
2016-07-30T00:05:44.659Z,1008.16
2016-07-30T00:05:54.654Z,1008.13
2016-07-30T00:06:04.650Z,1008.16
2016-07-30T00:06:14.644Z,1008.14
2016-07-30T00:06:24.638Z,1008.19
2016-07-30T00:06:34.634Z,1008.13
2016-07-30T00:06:44.631Z,1008.14
2016-07-30T00:06:54.625Z,1008.12
2016-07-30T00:07:04.625Z,1008.14
2016-07-30T00:07:14.617Z,1008.2
2016-07-30T00:07:24.613Z,1008.15
2016-07-30T00:07:34.608Z,1008.15
2016-07-30T00:07:44.603Z,1008.15
2016-07-30T00:07:54.599Z,1008.15
2016-07-30T00:08:04.593Z,1008.16
2016-07-30T00:08:14.589Z,1008.12
2016-07-30T00:08:24.585Z,1008.16
2016-07-30T00:08:34.581Z,1008.13
2016-07-30T00:08:44.576Z,1008.14
2016-07-30T00:08:54.570Z,1008.15
2016-07-30T00:09:04.566Z,1008.13
2016-07-30T00:09:14.562Z,1008.13
2016-07-30T00:09:24.559Z,1008.19
2016-07-30T00:09:34.553Z,1008.19
2016-07-30T00:09:44.548Z,1008.17
2016-07-30T00:09:54.543Z,1008.17
2016-07-30T00:10:04.540Z,1008.2
2016-07-30T00:10:14.533Z,1008.17
2016-07-30T00:10:24.530Z,1008.26
2016-07-30T00:10:34.523Z,1008.21
2016-07-30T00:10:44.522Z,1008.25
2016-07-30T00:10:54.513Z,1008.2
2016-07-30T00:11:04.512Z,1008.18
2016-07-30T00:11:14.508Z,1008.22
2016-07-30T00:11:24.500Z,1008.21
2016-07-30T00:11:34.495Z,1008.19
2016-07-30T00:11:44.491Z,1008.19
2016-07-30T00:11:54.490Z,1008.18
2016-07-30T00:12:04.482Z,1008.17
2016-07-30T00:12:14.479Z,1008.16
2016-07-30T00:12:24.472Z,1008.14
2016-07-30T00:12:34.469Z,1008.15
2016-07-30T00:12:44.465Z,1008.19
2016-07-30T00:12:54.462Z,1008.16
2016-07-30T00:13:04.456Z,1008.13
2016-07-30T00:13:14.452Z,1008.17
2016-07-30T00:13:24.445Z,1008.16
2016-07-30T00:13:34.441Z,1008.14
2016-07-30T00:13:44.436Z,1008.13
2016-07-30T00:13:54.432Z,1008.2
2016-07-30T00:14:04.428Z,1008.17
2016-07-30T00:14:14.424Z,1008.13
2016-07-30T00:14:24.419Z,1008.17
2016-07-30T00:14:34.416Z,1008.13
2016-07-30T00:14:44.414Z,1008.12
2016-07-30T00:14:54.406Z,1008.14
2016-07-30T00:15:04.402Z,1008.16
2016-07-30T00:15:14.397Z,1008.12
2016-07-30T00:15:24.390Z,1008.18
2016-07-30T00:15:34.387Z,1008.11
2016-07-30T00:15:44.381Z,1008.16
2016-07-30T00:15:54.378Z,1008.13
2016-07-30T00:16:04.373Z,1008.16
2016-07-30T00:16:14.368Z,1008.18
2016-07-30T00:16:24.362Z,1008.17
2016-07-30T00:16:34.357Z,1008.16
2016-07-30T00:16:44.354Z,1008.1
2016-07-30T00:16:54.350Z,1008.13
2016-07-30T00:17:04.342Z,1008.15
2016-07-30T00:17:14.341Z,1008.13
2016-07-30T00:17:24.334Z,1008.16
2016-07-30T00:17:34.331Z,1008.15
2016-07-30T00:17:45.056Z,1008.18
2016-07-30T00:17:54.324Z,1008.18
2016-07-30T00:18:04.318Z,1008.11
2016-07-30T00:18:14.314Z,1008.12
2016-07-30T00:18:24.310Z,1008.09
2016-07-30T00:18:34.305Z,1008.1
2016-07-30T00:18:44.299Z,1008.13
2016-07-30T00:18:54.294Z,1008.12
2016-07-30T00:19:04.291Z,1008.12
2016-07-30T00:19:14.286Z,1008.12
2016-07-30T00:19:24.282Z,1008.19
2016-07-30T00:19:34.279Z,1008.14
2016-07-30T00:19:44.273Z,1008.19
2016-07-30T00:19:54.267Z,1008.17
2016-07-30T00:20:04.263Z,1008.17
2016-07-30T00:20:14.262Z,1008.16
2016-07-30T00:20:24.253Z,1008.17
2016-07-30T00:20:34.248Z,1008.16
2016-07-30T00:20:44.246Z,1008.17
2016-07-30T00:20:54.238Z,1008.15
2016-07-30T00:21:04.231Z,1008.17
2016-07-30T00:21:14.228Z,1008.18
2016-07-30T00:21:24.225Z,1008.19
2016-07-30T00:21:34.219Z,1008.18
2016-07-30T00:21:44.217Z,1008.21
2016-07-30T00:21:54.211Z,1008.18
2016-07-30T00:22:04.207Z,1008.17
2016-07-30T00:22:14.202Z,1008.19
2016-07-30T00:22:24.197Z,1008.17
2016-07-30T00:22:34.194Z,1008.14
2016-07-30T00:22:44.188Z,1008.18
2016-07-30T00:22:54.185Z,1008.17
2016-07-30T00:23:04.180Z,1008.2
2016-07-30T00:23:14.174Z,1008.15
2016-07-30T00:23:24.170Z,1008.15
2016-07-30T00:23:34.165Z,1008.2
2016-07-30T00:23:44.161Z,1008.19
2016-07-30T00:23:54.157Z,1008.19
2016-07-30T00:24:04.160Z,1008.2
2016-07-30T00:24:14.148Z,1008.23
2016-07-30T00:24:24.143Z,1008.19
2016-07-30T00:24:34.137Z,1008.18
2016-07-30T00:24:44.134Z,1008.22
2016-07-30T00:24:54.127Z,1008.2
2016-07-30T00:25:04.122Z,1008.18
2016-07-30T00:25:14.118Z,1008.17
2016-07-30T00:25:24.114Z,1008.2
2016-07-30T00:25:34.110Z,1008.21
2016-07-30T00:25:44.106Z,1008.14
2016-07-30T00:25:54.100Z,1008.19
2016-07-30T00:26:04.096Z,1008.13
2016-07-30T00:26:14.091Z,1008.16
2016-07-30T00:26:24.084Z,1008.22
2016-07-30T00:26:34.083Z,1008.22
2016-07-30T00:26:44.080Z,1008.2
2016-07-30T00:26:54.073Z,1008.19
2016-07-30T00:27:04.070Z,1008.17
2016-07-30T00:27:14.064Z,1008.19
2016-07-30T00:27:24.058Z,1008.19
2016-07-30T00:27:34.059Z,1008.19
2016-07-30T00:27:44.051Z,1008.23
2016-07-30T00:27:54.046Z,1008.23
2016-07-30T00:28:04.043Z,1008.21
2016-07-30T00:28:14.036Z,1008.21
2016-07-30T00:28:24.031Z,1008.21
2016-07-30T00:28:34.027Z,1008.19
2016-07-30T00:28:44.022Z,1008.16
2016-07-30T00:28:54.017Z,1008.21
2016-07-30T00:29:04.014Z,1008.19
2016-07-30T00:29:14.007Z,1008.19
2016-07-30T00:29:24.003Z,1008.19
2016-07-30T00:29:33.999Z,1008.22
2016-07-30T00:29:43.993Z,1008.23
2016-07-30T00:29:53.989Z,1008.19
2016-07-30T00:30:03.985Z,1008.19
2016-07-30T00:30:13.979Z,1008.19
2016-07-30T00:30:23.975Z,1008.2
2016-07-30T00:30:33.971Z,1008.12
2016-07-30T00:30:44.698Z,1008.16
2016-07-30T00:30:53.962Z,1008.23
2016-07-30T00:31:03.958Z,1008.19
2016-07-30T00:31:13.954Z,1008.17
2016-07-30T00:31:24.679Z,1008.16
2016-07-30T00:31:33.944Z,1008.18
2016-07-30T00:31:43.940Z,1008.14
2016-07-30T00:31:53.933Z,1008.18
2016-07-30T00:32:03.930Z,1008.17
2016-07-30T00:32:13.926Z,1008.18
2016-07-30T00:32:23.922Z,1008.18
2016-07-30T00:32:33.915Z,1008.16
2016-07-30T00:32:43.912Z,1008.18
2016-07-30T00:32:53.906Z,1008.16
2016-07-30T00:33:03.903Z,1008.22
2016-07-30T00:33:13.896Z,1008.18
2016-07-30T00:33:23.891Z,1008.23
2016-07-30T00:33:33.886Z,1008.16
2016-07-30T00:33:43.884Z,1008.15
2016-07-30T00:33:53.877Z,1008.21
2016-07-30T00:34:03.875Z,1008.14
2016-07-30T00:34:13.868Z,1008.18
2016-07-30T00:34:23.863Z,1008.18
2016-07-30T00:34:33.858Z,1008.2
2016-07-30T00:34:43.855Z,1008.15
2016-07-30T00:34:53.850Z,1008.15
2016-07-30T00:35:03.846Z,1008.18
2016-07-30T00:35:13.841Z,1008.16
2016-07-30T00:35:23.836Z,1008.14
2016-07-30T00:35:33.833Z,1008.17
2016-07-30T00:35:43.828Z,1008.14
2016-07-30T00:35:53.824Z,1008.14
2016-07-30T00:36:03.820Z,1008.17
2016-07-30T00:36:13.822Z,1008.13
2016-07-30T00:36:23.808Z,1008.13
2016-07-30T00:36:33.804Z,1008.14
2016-07-30T00:36:43.799Z,1008.16
2016-07-30T00:36:53.794Z,1008.14
2016-07-30T00:37:03.790Z,1008.17
2016-07-30T00:37:13.786Z,1008.17
2016-07-30T00:37:23.781Z,1008.14
2016-07-30T00:37:33.776Z,1008.13
2016-07-30T00:37:43.772Z,1008.17
2016-07-30T00:37:53.767Z,1008.13
2016-07-30T00:38:03.760Z,1008.1
2016-07-30T00:38:13.757Z,1008.18
2016-07-30T00:38:23.752Z,1008.13
2016-07-30T00:38:33.753Z,1008.09
2016-07-30T00:38:43.743Z,1008.11
2016-07-30T00:38:53.740Z,1008.11
2016-07-30T00:39:03.734Z,1008.11
2016-07-30T00:39:13.731Z,1008.12
2016-07-30T00:39:23.727Z,1008.13
2016-07-30T00:39:33.721Z,1008.14
2016-07-30T00:39:43.716Z,1008.13
2016-07-30T00:39:53.711Z,1008.11
2016-07-30T00:40:03.706Z,1008.12
2016-07-30T00:40:13.704Z,1008.12
2016-07-30T00:40:23.699Z,1008.16
2016-07-30T00:40:33.692Z,1008.13
2016-07-30T00:40:43.690Z,1008.15
2016-07-30T00:40:53.685Z,1008.16
2016-07-30T00:41:03.680Z,1008.08
2016-07-30T00:41:13.676Z,1008.15
2016-07-30T00:41:23.672Z,1008.11
2016-07-30T00:41:33.663Z,1008.15
2016-07-30T00:41:43.661Z,1008.09
2016-07-30T00:41:53.655Z,1008.09
2016-07-30T00:42:03.650Z,1008.11
2016-07-30T00:42:13.648Z,1008.1
2016-07-30T00:42:23.642Z,1008.08
2016-07-30T00:42:33.648Z,1008.04
2016-07-30T00:42:43.633Z,1008.1
2016-07-30T00:42:53.628Z,1008.13
2016-07-30T00:43:03.624Z,1008.14
2016-07-30T00:43:13.617Z,1008.14
2016-07-30T00:43:23.613Z,1008.08
2016-07-30T00:43:33.610Z,1008.1
2016-07-30T00:43:43.604Z,1008.1
2016-07-30T00:43:53.600Z,1008.11
2016-07-30T00:44:03.596Z,1008.12
2016-07-30T00:44:13.596Z,1008.11
2016-07-30T00:44:23.589Z,1008.11
2016-07-30T00:44:33.581Z,1008.12
2016-07-30T00:44:43.579Z,1008.1
2016-07-30T00:44:53.579Z,1008.12
2016-07-30T00:45:03.566Z,1008.12
2016-07-30T00:45:13.563Z,1008.2
2016-07-30T00:45:23.561Z,1008.18
2016-07-30T00:45:33.555Z,1008.15
2016-07-30T00:45:43.550Z,1008.16
2016-07-30T00:45:53.545Z,1008.15
2016-07-30T00:46:03.541Z,1008.16
2016-07-30T00:46:13.533Z,1008.13
2016-07-30T00:46:23.530Z,1008.18
2016-07-30T00:46:33.528Z,1008.18
2016-07-30T00:46:43.521Z,1008.16
2016-07-30T00:46:53.515Z,1008.21
2016-07-30T00:47:03.512Z,1008.15
2016-07-30T00:47:13.507Z,1008.17
2016-07-30T00:47:23.503Z,1008.22
2016-07-30T00:47:33.499Z,1008.18
2016-07-30T00:47:43.494Z,1008.22
2016-07-30T00:47:53.489Z,1008.19
2016-07-30T00:48:03.484Z,1008.23
2016-07-30T00:48:13.480Z,1008.2
2016-07-30T00:48:23.477Z,1008.15
2016-07-30T00:48:33.468Z,1008.2
2016-07-30T00:48:43.466Z,1008.22
2016-07-30T00:48:53.461Z,1008.23
2016-07-30T00:49:03.457Z,1008.2
2016-07-30T00:49:13.457Z,1008.2
2016-07-30T00:49:23.449Z,1008.18
2016-07-30T00:49:33.445Z,1008.18
2016-07-30T00:49:43.439Z,1008.18
2016-07-30T00:49:53.432Z,1008.15
2016-07-30T00:50:03.430Z,1008.15
2016-07-30T00:50:13.455Z,1008.17
2016-07-30T00:50:23.420Z,1008.15
2016-07-30T00:50:33.415Z,1008.15
2016-07-30T00:50:43.409Z,1008.19
2016-07-30T00:50:53.407Z,1008.15
2016-07-30T00:51:03.400Z,1008.15
2016-07-30T00:51:13.396Z,1008.19
2016-07-30T00:51:23.391Z,1008.15
2016-07-30T00:51:33.386Z,1008.17
2016-07-30T00:51:43.383Z,1008.19
2016-07-30T00:51:53.377Z,1008.14
2016-07-30T00:52:03.372Z,1008.17
2016-07-30T00:52:13.367Z,1008.2
2016-07-30T00:52:23.363Z,1008.19
2016-07-30T00:52:33.370Z,1008.21
2016-07-30T00:52:43.354Z,1008.19
2016-07-30T00:52:53.349Z,1008.18
2016-07-30T00:53:03.343Z,1008.21
2016-07-30T00:53:13.341Z,1008.17
2016-07-30T00:53:23.337Z,1008.19
2016-07-30T00:53:33.330Z,1008.2
2016-07-30T00:53:44.056Z,1008.22
2016-07-30T00:53:54.051Z,1008.18
2016-07-30T00:54:03.316Z,1008.2
2016-07-30T00:54:13.313Z,1008.21
2016-07-30T00:54:23.308Z,1008.19
2016-07-30T00:54:33.301Z,1008.24
2016-07-30T00:54:43.297Z,1008.2
2016-07-30T00:54:53.293Z,1008.19
2016-07-30T00:55:03.291Z,1008.2
2016-07-30T00:55:13.284Z,1008.18
2016-07-30T00:55:23.280Z,1008.19
2016-07-30T00:55:33.276Z,1008.23
2016-07-30T00:55:43.269Z,1008.21
2016-07-30T00:55:53.269Z,1008.22
2016-07-30T00:56:03.262Z,1008.24
2016-07-30T00:56:13.257Z,1008.21
2016-07-30T00:56:23.251Z,1008.22
2016-07-30T00:56:33.247Z,1008.25
2016-07-30T00:56:43.247Z,1008.24
2016-07-30T00:56:53.238Z,1008.2
2016-07-30T00:57:03.234Z,1008.2
2016-07-30T00:57:13.231Z,1008.2
2016-07-30T00:57:23.225Z,1008.2
2016-07-30T00:57:33.221Z,1008.23
2016-07-30T00:57:43.216Z,1008.21
2016-07-30T00:57:53.210Z,1008.18
2016-07-30T00:58:03.209Z,1008.17
2016-07-30T00:58:13.202Z,1008.19
2016-07-30T00:58:23.197Z,1008.2
2016-07-30T00:58:33.192Z,1008.23
2016-07-30T00:58:43.188Z,1008.2
2016-07-30T00:58:53.184Z,1008.19
2016-07-30T00:59:03.178Z,1008.19
2016-07-30T00:59:13.173Z,1008.19
2016-07-30T00:59:23.168Z,1008.16
2016-07-30T00:59:33.164Z,1008.22
2016-07-30T00:59:43.160Z,1008.19
2016-07-30T00:59:53.155Z,1008.18
2016-07-30T01:00:03.149Z,1008.2
2016-07-30T01:00:13.146Z,1008.15
2016-07-30T01:00:23.140Z,1008.13
2016-07-30T01:00:33.136Z,1008.13
2016-07-30T01:00:43.139Z,1008.14
2016-07-30T01:00:53.126Z,1008.13
2016-07-30T01:01:03.124Z,1008.11
2016-07-30T01:01:13.117Z,1008.11
2016-07-30T01:01:23.116Z,1008.1
2016-07-30T01:01:33.110Z,1008.15
2016-07-30T01:01:43.104Z,1008.13
2016-07-30T01:01:53.099Z,1008.07
2016-07-30T01:02:03.095Z,1008.1
2016-07-30T01:02:13.819Z,1008.1
2016-07-30T01:02:23.085Z,1008.14
2016-07-30T01:02:33.081Z,1008.08
2016-07-30T01:02:43.080Z,1008.12
2016-07-30T01:02:53.071Z,1008.11
2016-07-30T01:03:03.069Z,1008.1
2016-07-30T01:03:13.061Z,1008.05
2016-07-30T01:03:23.055Z,1008.07
2016-07-30T01:03:33.053Z,1008.02
2016-07-30T01:03:43.047Z,1008.05
2016-07-30T01:03:53.044Z,1008.07
2016-07-30T01:04:03.044Z,1008.04
2016-07-30T01:04:13.034Z,1008.07
2016-07-30T01:04:23.027Z,1008.07
2016-07-30T01:04:33.025Z,1008.03
2016-07-30T01:04:43.021Z,1008.03
2016-07-30T01:04:53.016Z,1008
2016-07-30T01:05:03.010Z,1008.06
2016-07-30T01:05:13.007Z,1008.05
2016-07-30T01:05:23.002Z,1008.02
2016-07-30T01:05:32.999Z,1008.01
2016-07-30T01:05:42.995Z,1008.06
2016-07-30T01:05:52.989Z,1008.03
2016-07-30T01:06:02.985Z,1008
2016-07-30T01:06:12.979Z,1008.05
2016-07-30T01:06:22.972Z,1008.08
2016-07-30T01:06:32.969Z,1008.08
2016-07-30T01:06:42.965Z,1008.04
2016-07-30T01:06:52.962Z,1008.03
2016-07-30T01:07:02.955Z,1008
2016-07-30T01:07:12.951Z,1008.02
2016-07-30T01:07:22.946Z,1008.01
2016-07-30T01:07:32.942Z,1008
2016-07-30T01:07:42.935Z,1008.02
2016-07-30T01:07:52.932Z,1008.02
2016-07-30T01:08:02.929Z,1008.02
2016-07-30T01:08:12.923Z,1007.99
2016-07-30T01:08:22.923Z,1007.97
2016-07-30T01:08:32.914Z,1007.98
2016-07-30T01:08:42.909Z,1008.01
2016-07-30T01:08:52.904Z,1008.06
2016-07-30T01:09:02.900Z,1008
2016-07-30T01:09:12.896Z,1008.02
2016-07-30T01:09:22.890Z,1008
2016-07-30T01:09:32.887Z,1008.04
2016-07-30T01:09:42.890Z,1008.02
2016-07-30T01:09:52.876Z,1007.97
2016-07-30T01:10:02.873Z,1007.99
2016-07-30T01:10:12.869Z,1008.03
2016-07-30T01:10:22.863Z,1007.99
2016-07-30T01:10:32.861Z,1008.04
2016-07-30T01:10:42.853Z,1008.03
2016-07-30T01:10:52.850Z,1007.97
2016-07-30T01:11:02.847Z,1008.01
2016-07-30T01:11:12.839Z,1007.97
2016-07-30T01:11:22.834Z,1008.03
2016-07-30T01:11:32.829Z,1008
2016-07-30T01:11:42.827Z,1008.02
2016-07-30T01:11:52.822Z,1008.03
2016-07-30T01:12:02.835Z,1008.03
2016-07-30T01:12:12.809Z,1007.96
2016-07-30T01:12:22.807Z,1008.01
2016-07-30T01:12:32.810Z,1008.04
2016-07-30T01:12:42.796Z,1008.04
2016-07-30T01:12:52.793Z,1008.06
2016-07-30T01:13:02.788Z,1008.04
2016-07-30T01:13:12.784Z,1008.03
2016-07-30T01:13:22.780Z,1008.09
2016-07-30T01:13:32.776Z,1008.05
2016-07-30T01:13:42.773Z,1008.1
2016-07-30T01:13:52.763Z,1008.07
2016-07-30T01:14:02.762Z,1008.08
2016-07-30T01:14:13.494Z,1008.09
2016-07-30T01:14:22.752Z,1008.05
2016-07-30T01:14:32.748Z,1008.09
2016-07-30T01:14:42.743Z,1008.13
2016-07-30T01:14:52.736Z,1008.1
2016-07-30T01:15:02.733Z,1008.09
2016-07-30T01:15:12.728Z,1008.05
2016-07-30T01:15:22.725Z,1008.13
2016-07-30T01:15:32.719Z,1008.09
2016-07-30T01:15:42.713Z,1008.13
2016-07-30T01:15:52.712Z,1008.08
2016-07-30T01:16:02.706Z,1008.09
2016-07-30T01:16:12.700Z,1008.09
2016-07-30T01:16:22.699Z,1008.1
2016-07-30T01:16:32.688Z,1008.15
2016-07-30T01:16:42.688Z,1008.11
2016-07-30T01:16:53.438Z,1008.11
2016-07-30T01:17:02.676Z,1008.12
2016-07-30T01:17:12.672Z,1008.06
2016-07-30T01:17:22.669Z,1008.09
2016-07-30T01:17:32.672Z,1008.08
2016-07-30T01:17:42.660Z,1008.12
2016-07-30T01:17:52.654Z,1008.08
2016-07-30T01:18:02.648Z,1008.09
2016-07-30T01:18:12.644Z,1008.06
2016-07-30T01:18:22.639Z,1008.07
2016-07-30T01:18:32.641Z,1008.1
2016-07-30T01:18:42.633Z,1008.12
2016-07-30T01:18:52.627Z,1008.1
2016-07-30T01:19:02.622Z,1008.11
2016-07-30T01:19:12.617Z,1008.06
2016-07-30T01:19:22.611Z,1008.04
2016-07-30T01:19:32.607Z,1008.11
2016-07-30T01:19:42.604Z,1008.11
2016-07-30T01:19:52.599Z,1008.08
2016-07-30T01:20:02.595Z,1008.08
2016-07-30T01:20:12.587Z,1008.09
2016-07-30T01:20:22.583Z,1008.07
2016-07-30T01:20:32.578Z,1008.06
2016-07-30T01:20:42.575Z,1008.04
2016-07-30T01:20:52.568Z,1008.07
2016-07-30T01:21:02.564Z,1008.07
2016-07-30T01:21:12.559Z,1008.08
2016-07-30T01:21:22.557Z,1008.06
2016-07-30T01:21:32.551Z,1008.08
2016-07-30T01:21:42.547Z,1008.06
2016-07-30T01:21:52.542Z,1008.08
2016-07-30T01:22:02.540Z,1008.07
2016-07-30T01:22:12.538Z,1008.04
2016-07-30T01:22:22.526Z,1008.06
2016-07-30T01:22:32.522Z,1008.03
2016-07-30T01:22:42.519Z,1008.07
2016-07-30T01:22:52.514Z,1008.06
2016-07-30T01:23:02.510Z,1008.06
2016-07-30T01:23:12.506Z,1008.09
2016-07-30T01:23:22.501Z,1008.08
2016-07-30T01:23:32.497Z,1008.08
2016-07-30T01:23:42.490Z,1008.07
2016-07-30T01:23:52.487Z,1008.07
2016-07-30T01:24:02.481Z,1008.09
2016-07-30T01:24:12.480Z,1008.07
2016-07-30T01:24:22.473Z,1008.06
2016-07-30T01:24:32.467Z,1008.04
2016-07-30T01:24:42.464Z,1008.03
2016-07-30T01:24:52.459Z,1008.02
2016-07-30T01:25:02.454Z,1008.03
2016-07-30T01:25:12.449Z,1008.02
2016-07-30T01:25:22.443Z,1008.02
2016-07-30T01:25:32.439Z,1008.02
2016-07-30T01:25:42.437Z,1008.03
2016-07-30T01:25:52.431Z,1007.99
2016-07-30T01:26:02.426Z,1008.02
2016-07-30T01:26:12.422Z,1008.05
2016-07-30T01:26:22.416Z,1008.06
2016-07-30T01:26:32.413Z,1007.99
2016-07-30T01:26:43.137Z,1008.01
2016-07-30T01:26:52.404Z,1007.97
2016-07-30T01:27:02.399Z,1008.02
2016-07-30T01:27:12.394Z,1008.01
2016-07-30T01:27:22.390Z,1008.01
2016-07-30T01:27:32.387Z,1007.98
2016-07-30T01:27:42.379Z,1008.02
2016-07-30T01:27:52.374Z,1007.98
2016-07-30T01:28:02.377Z,1007.94
2016-07-30T01:28:12.364Z,1007.98
2016-07-30T01:28:22.360Z,1008.01
2016-07-30T01:28:32.354Z,1007.99
2016-07-30T01:28:42.351Z,1008.02
2016-07-30T01:28:52.346Z,1007.99
2016-07-30T01:29:02.342Z,1008
2016-07-30T01:29:12.337Z,1007.98
2016-07-30T01:29:22.332Z,1008.03
2016-07-30T01:29:32.335Z,1008.01
2016-07-30T01:29:42.324Z,1007.99
2016-07-30T01:29:52.318Z,1007.99
2016-07-30T01:30:02.313Z,1007.97
2016-07-30T01:30:12.310Z,1008
2016-07-30T01:30:22.306Z,1008
2016-07-30T01:30:32.301Z,1008.03
2016-07-30T01:30:42.297Z,1008.01
2016-07-30T01:30:52.292Z,1008.01
2016-07-30T01:31:02.288Z,1008.01
2016-07-30T01:31:12.283Z,1007.97
2016-07-30T01:31:23.006Z,1008.05
2016-07-30T01:31:32.272Z,1007.99
2016-07-30T01:31:42.268Z,1007.97
2016-07-30T01:31:52.263Z,1007.98
2016-07-30T01:32:02.259Z,1008.05
2016-07-30T01:32:12.254Z,1007.98
2016-07-30T01:32:22.249Z,1007.98
2016-07-30T01:32:32.241Z,1008.02
2016-07-30T01:32:42.240Z,1008.04
2016-07-30T01:32:52.234Z,1008.04
2016-07-30T01:33:02.228Z,1008.06
2016-07-30T01:33:12.224Z,1008
2016-07-30T01:33:22.220Z,1008.03
2016-07-30T01:33:32.219Z,1008.06
2016-07-30T01:33:42.212Z,1008.01
2016-07-30T01:33:52.207Z,1008
2016-07-30T01:34:02.202Z,1008.01
2016-07-30T01:34:12.198Z,1008.03
2016-07-30T01:34:22.191Z,1008.02
2016-07-30T01:34:32.191Z,1007.98
2016-07-30T01:34:42.913Z,1007.99
2016-07-30T01:34:52.185Z,1008.01
2016-07-30T01:35:02.176Z,1007.96
2016-07-30T01:35:12.169Z,1008.02
2016-07-30T01:35:22.165Z,1008.04
2016-07-30T01:35:32.163Z,1008
2016-07-30T01:35:42.155Z,1008.01
2016-07-30T01:35:52.153Z,1008.02
2016-07-30T01:36:02.148Z,1008.01
2016-07-30T01:36:12.149Z,1008.04
2016-07-30T01:36:22.136Z,1007.99
2016-07-30T01:36:32.132Z,1008
2016-07-30T01:36:42.128Z,1007.99
2016-07-30T01:36:52.123Z,1008.04
2016-07-30T01:37:02.118Z,1008.01
2016-07-30T01:37:12.111Z,1007.99
2016-07-30T01:37:22.108Z,1007.98
2016-07-30T01:37:32.103Z,1007.99
2016-07-30T01:37:42.100Z,1008
2016-07-30T01:37:52.095Z,1007.95
2016-07-30T01:38:02.089Z,1007.96
2016-07-30T01:38:12.086Z,1007.97
2016-07-30T01:38:22.080Z,1007.97
2016-07-30T01:38:32.076Z,1007.94
2016-07-30T01:38:42.074Z,1007.97
2016-07-30T01:38:52.067Z,1007.94
2016-07-30T01:39:02.062Z,1007.97
2016-07-30T01:39:12.058Z,1007.93
2016-07-30T01:39:22.054Z,1007.97
2016-07-30T01:39:32.049Z,1007.96
2016-07-30T01:39:42.043Z,1007.96
2016-07-30T01:39:52.040Z,1007.95
2016-07-30T01:40:02.036Z,1007.99
2016-07-30T01:40:12.030Z,1007.95
2016-07-30T01:40:22.026Z,1007.95
2016-07-30T01:40:32.019Z,1007.99
2016-07-30T01:40:42.017Z,1007.96
2016-07-30T01:40:52.011Z,1007.96
2016-07-30T01:41:02.005Z,1007.95
2016-07-30T01:41:12.003Z,1007.92
2016-07-30T01:41:21.997Z,1007.96
2016-07-30T01:41:31.991Z,1007.92
2016-07-30T01:41:41.989Z,1007.97
2016-07-30T01:41:51.981Z,1007.96
2016-07-30T01:42:01.984Z,1007.99
2016-07-30T01:42:11.977Z,1007.92
2016-07-30T01:42:21.969Z,1007.93
2016-07-30T01:42:31.964Z,1007.91
2016-07-30T01:42:41.960Z,1007.91
2016-07-30T01:42:51.955Z,1007.95
2016-07-30T01:43:01.951Z,1007.92
2016-07-30T01:43:11.945Z,1007.92
2016-07-30T01:43:21.942Z,1007.9
2016-07-30T01:43:32.665Z,1007.96
2016-07-30T01:43:41.931Z,1007.93
2016-07-30T01:43:52.656Z,1007.91
2016-07-30T01:44:01.924Z,1007.97
2016-07-30T01:44:11.916Z,1007.95
2016-07-30T01:44:21.913Z,1007.96
2016-07-30T01:44:31.907Z,1007.96
2016-07-30T01:44:41.902Z,1007.96
2016-07-30T01:44:51.899Z,1007.93
2016-07-30T01:45:01.894Z,1007.92
2016-07-30T01:45:11.889Z,1007.92
2016-07-30T01:45:21.886Z,1007.91
2016-07-30T01:45:31.883Z,1007.92
2016-07-30T01:45:41.875Z,1007.94
2016-07-30T01:45:51.868Z,1007.94
2016-07-30T01:46:01.865Z,1007.89
2016-07-30T01:46:11.862Z,1007.95
2016-07-30T01:46:21.856Z,1007.89
2016-07-30T01:46:31.852Z,1007.93
2016-07-30T01:46:41.846Z,1007.93
2016-07-30T01:46:51.842Z,1007.87
2016-07-30T01:47:01.838Z,1007.95
2016-07-30T01:47:11.835Z,1007.96
2016-07-30T01:47:21.831Z,1007.92
2016-07-30T01:47:31.827Z,1007.93
2016-07-30T01:47:41.820Z,1007.9
2016-07-30T01:47:51.814Z,1007.94
2016-07-30T01:48:01.809Z,1007.92
2016-07-30T01:48:11.804Z,1007.96
2016-07-30T01:48:21.801Z,1007.94
2016-07-30T01:48:31.795Z,1007.94
2016-07-30T01:48:41.791Z,1007.95
2016-07-30T01:48:51.786Z,1007.91
2016-07-30T01:49:01.782Z,1007.93
2016-07-30T01:49:11.777Z,1007.95
2016-07-30T01:49:21.773Z,1007.95
2016-07-30T01:49:31.768Z,1007.91
2016-07-30T01:49:41.762Z,1007.94
2016-07-30T01:49:51.757Z,1007.94
2016-07-30T01:50:01.753Z,1007.87
2016-07-30T01:50:11.749Z,1007.95
2016-07-30T01:50:21.743Z,1007.92
2016-07-30T01:50:31.740Z,1007.93
2016-07-30T01:50:41.736Z,1007.92
2016-07-30T01:50:51.733Z,1007.96
2016-07-30T01:51:01.728Z,1007.94
2016-07-30T01:51:11.721Z,1007.89
2016-07-30T01:51:21.716Z,1007.95
2016-07-30T01:51:31.713Z,1007.9
2016-07-30T01:51:41.710Z,1007.86
2016-07-30T01:51:51.703Z,1007.92
2016-07-30T01:52:01.708Z,1007.92
2016-07-30T01:52:11.692Z,1007.91
2016-07-30T01:52:21.687Z,1007.89
2016-07-30T01:52:32.411Z,1007.92
2016-07-30T01:52:41.679Z,1007.94
2016-07-30T01:52:51.674Z,1007.86
2016-07-30T01:53:01.670Z,1007.89
2016-07-30T01:53:11.663Z,1007.9
2016-07-30T01:53:21.660Z,1007.87
2016-07-30T01:53:31.654Z,1007.88
2016-07-30T01:53:42.380Z,1007.88
2016-07-30T01:53:51.646Z,1007.9
2016-07-30T01:54:01.640Z,1007.88
2016-07-30T01:54:11.636Z,1007.91
2016-07-30T01:54:21.637Z,1007.91
2016-07-30T01:54:31.628Z,1007.93
2016-07-30T01:54:41.623Z,1007.91
2016-07-30T01:54:51.619Z,1007.84
2016-07-30T01:55:01.614Z,1007.9
2016-07-30T01:55:11.611Z,1007.9
2016-07-30T01:55:21.605Z,1007.89
2016-07-30T01:55:31.603Z,1007.87
2016-07-30T01:55:41.596Z,1007.86
2016-07-30T01:55:51.591Z,1007.92
2016-07-30T01:56:01.584Z,1007.89
2016-07-30T01:56:11.582Z,1007.93
2016-07-30T01:56:21.576Z,1007.86
2016-07-30T01:56:31.570Z,1007.91
2016-07-30T01:56:41.567Z,1007.91
2016-07-30T01:56:51.565Z,1007.92
2016-07-30T01:57:01.556Z,1007.88
2016-07-30T01:57:11.553Z,1007.91
2016-07-30T01:57:21.549Z,1007.9
2016-07-30T01:57:31.545Z,1007.89
2016-07-30T01:57:41.539Z,1007.83
2016-07-30T01:57:51.532Z,1007.88
2016-07-30T01:58:01.530Z,1007.89
2016-07-30T01:58:11.523Z,1007.89
2016-07-30T01:58:21.519Z,1007.88
2016-07-30T01:58:31.515Z,1007.86
2016-07-30T01:58:41.510Z,1007.93
2016-07-30T01:58:51.507Z,1007.87
2016-07-30T01:59:01.499Z,1007.87
2016-07-30T01:59:11.496Z,1007.85
2016-07-30T01:59:21.494Z,1007.9
2016-07-30T01:59:31.489Z,1007.86
2016-07-30T01:59:41.484Z,1007.88
2016-07-30T01:59:51.479Z,1007.9
2016-07-30T02:00:01.474Z,1007.87
2016-07-30T02:00:11.468Z,1007.86
2016-07-30T02:00:21.464Z,1007.83
2016-07-30T02:00:31.461Z,1007.89
2016-07-30T02:00:41.455Z,1007.85
2016-07-30T02:00:51.450Z,1007.82
2016-07-30T02:01:01.445Z,1007.83
2016-07-30T02:01:11.447Z,1007.84
2016-07-30T02:01:21.436Z,1007.85